sensor_id;sensor_type;location;lat;lon;timestamp;pressure;altitude;pressure_sealevel;temperature;humidity
76730;BME280;65653;53.106;18.046;2023-03-14T00:00:12;98726.30;;;11.56;75.48
76730;BME280;65653;53.106;18.046;2023-03-14T00:02:59;98720.72;;;11.52;76.01
76730;BME280;65653;53.106;18.046;2023-03-14T00:05:26;98723.23;;;11.49;75.96
76730;BME280;65653;53.106;18.046;2023-03-14T00:07:53;98724.17;;;11.46;75.92
76730;BME280;65653;53.106;18.046;2023-03-14T00:10:20;98726.61;;;11.49;75.70
76730;BME280;65653;53.106;18.046;2023-03-14T00:12:47;98731.27;;;11.50;75.79
76730;BME280;65653;53.106;18.046;2023-03-14T00:15:13;98731.21;;;11.49;75.77
76730;BME280;65653;53.106;18.046;2023-03-14T00:17:43;98728.55;;;11.49;75.64
76730;BME280;65653;53.106;18.046;2023-03-14T00:20:11;98735.09;;;11.48;75.88
76730;BME280;65653;53.106;18.046;2023-03-14T00:22:38;98730.38;;;11.48;75.29
76730;BME280;65653;53.106;18.046;2023-03-14T00:25:06;98733.01;;;11.50;75.37
76730;BME280;65653;53.106;18.046;2023-03-14T00:27:33;98734.20;;;11.54;74.99
76730;BME280;65653;53.106;18.046;2023-03-14T00:30:02;98731.23;;;11.56;74.85
76730;BME280;65653;53.106;18.046;2023-03-14T00:32:29;98726.30;;;11.57;74.74
76730;BME280;65653;53.106;18.046;2023-03-14T00:34:56;98731.98;;;11.57;74.91
76730;BME280;65653;53.106;18.046;2023-03-14T00:37:23;98734.14;;;11.58;74.51
76730;BME280;65653;53.106;18.046;2023-03-14T00:39:51;98731.23;;;11.60;74.37
76730;BME280;65653;53.106;18.046;2023-03-14T00:42:18;98735.30;;;11.57;74.47
76730;BME280;65653;53.106;18.046;2023-03-14T00:44:45;98731.31;;;11.57;74.50
76730;BME280;65653;53.106;18.046;2023-03-14T00:47:11;98724.61;;;11.54;74.60
76730;BME280;65653;53.106;18.046;2023-03-14T00:49:38;98716.41;;;11.50;74.80
76730;BME280;65653;53.106;18.046;2023-03-14T00:52:04;98710.83;;;11.46;74.68
76730;BME280;65653;53.106;18.046;2023-03-14T00:54:31;98708.42;;;11.46;74.69
76730;BME280;65653;53.106;18.046;2023-03-14T00:56:57;98709.31;;;11.45;74.72
76730;BME280;65653;53.106;18.046;2023-03-14T00:59:23;98696.97;;;11.46;74.39
76730;BME280;65653;53.106;18.046;2023-03-14T01:01:50;98694.27;;;11.48;74.35
76730;BME280;65653;53.106;18.046;2023-03-14T01:04:16;98692.14;;;11.50;74.03
76730;BME280;65653;53.106;18.046;2023-03-14T01:06:43;98682.55;;;11.46;74.17
76730;BME280;65653;53.106;18.046;2023-03-14T01:09:09;98678.39;;;11.45;74.19
76730;BME280;65653;53.106;18.046;2023-03-14T01:11:36;98680.83;;;11.45;73.93
76730;BME280;65653;53.106;18.046;2023-03-14T01:14:03;98679.89;;;11.41;74.16
76730;BME280;65653;53.106;18.046;2023-03-14T01:16:32;98679.05;;;11.35;74.31
76730;BME280;65653;53.106;18.046;2023-03-14T01:18:59;98681.62;;;11.32;74.48
76730;BME280;65653;53.106;18.046;2023-03-14T01:21:31;98675.59;;;11.28;74.50
76730;BME280;65653;53.106;18.046;2023-03-14T01:23:59;98667.84;;;11.26;74.55
76730;BME280;65653;53.106;18.046;2023-03-14T01:26:29;98667.93;;;11.28;74.36
76730;BME280;65653;53.106;18.046;2023-03-14T01:28:56;98672.42;;;11.28;74.44
76730;BME280;65653;53.106;18.046;2023-03-14T01:31:24;98671.85;;;11.22;74.75
76730;BME280;65653;53.106;18.046;2023-03-14T01:33:52;98673.22;;;11.19;74.96
76730;BME280;65653;53.106;18.046;2023-03-14T01:36:20;98669.16;;;11.19;75.09
76730;BME280;65653;53.106;18.046;2023-03-14T01:38:46;98661.23;;;11.19;75.03
76730;BME280;65653;53.106;18.046;2023-03-14T01:41:16;98663.71;;;11.18;75.14
76730;BME280;65653;53.106;18.046;2023-03-14T01:43:43;98659.09;;;11.11;75.44
76730;BME280;65653;53.106;18.046;2023-03-14T01:46:12;98658.90;;;11.08;75.69
76730;BME280;65653;53.106;18.046;2023-03-14T01:54:04;98642.98;;;11.08;75.97
76730;BME280;65653;53.106;18.046;2023-03-14T01:56:32;98643.13;;;11.06;76.15
76730;BME280;65653;53.106;18.046;2023-03-14T01:59:00;98640.16;;;11.08;76.17
76730;BME280;65653;53.106;18.046;2023-03-14T02:01:30;98629.56;;;11.11;76.22
76730;BME280;65653;53.106;18.046;2023-03-14T02:03:59;98626.73;;;11.11;76.26
76730;BME280;65653;53.106;18.046;2023-03-14T02:06:33;98616.84;;;11.13;76.33
76730;BME280;65653;53.106;18.046;2023-03-14T02:09:02;98612.14;;;11.15;76.21
76730;BME280;65653;53.106;18.046;2023-03-14T02:11:30;98612.85;;;11.14;76.30
76730;BME280;65653;53.106;18.046;2023-03-14T02:13:58;98601.64;;;11.13;76.64
76730;BME280;65653;53.106;18.046;2023-03-14T02:16:25;98602.63;;;11.12;76.68
76730;BME280;65653;53.106;18.046;2023-03-14T02:18:52;98611.95;;;11.12;76.78
76730;BME280;65653;53.106;18.046;2023-03-14T02:26:36;98605.49;;;11.13;77.00
76730;BME280;65653;53.106;18.046;2023-03-14T02:29:04;98613.10;;;11.17;77.17
76730;BME280;65653;53.106;18.046;2023-03-14T02:31:32;98609.75;;;11.19;77.28
76730;BME280;65653;53.106;18.046;2023-03-14T02:34:00;98611.85;;;11.24;77.29
76730;BME280;65653;53.106;18.046;2023-03-14T02:36:27;98611.48;;;11.29;77.27
76730;BME280;65653;53.106;18.046;2023-03-14T02:39:07;98611.45;;;11.32;77.32
76730;BME280;65653;53.106;18.046;2023-03-14T02:41:34;98610.84;;;11.38;77.22
76730;BME280;65653;53.106;18.046;2023-03-14T02:44:01;98611.98;;;11.41;77.04
76730;BME280;65653;53.106;18.046;2023-03-14T02:46:27;98609.90;;;11.43;76.97
76730;BME280;65653;53.106;18.046;2023-03-14T02:49:02;98615.15;;;11.48;76.75
76730;BME280;65653;53.106;18.046;2023-03-14T02:51:29;98613.16;;;11.49;76.99
76730;BME280;65653;53.106;18.046;2023-03-14T02:53:56;98619.83;;;11.48;77.01
76730;BME280;65653;53.106;18.046;2023-03-14T02:56:23;98620.77;;;11.49;77.01
76730;BME280;65653;53.106;18.046;2023-03-14T02:58:50;98619.54;;;11.48;76.91
76730;BME280;65653;53.106;18.046;2023-03-14T03:01:16;98610.98;;;11.50;77.03
76730;BME280;65653;53.106;18.046;2023-03-14T03:03:43;98621.21;;;11.53;76.92
76730;BME280;65653;53.106;18.046;2023-03-14T03:06:09;98622.23;;;11.57;77.01
76730;BME280;65653;53.106;18.046;2023-03-14T03:08:36;98625.09;;;11.59;76.90
76730;BME280;65653;53.106;18.046;2023-03-14T03:11:03;98635.59;;;11.61;77.10
76730;BME280;65653;53.106;18.046;2023-03-14T03:13:30;98627.84;;;11.62;77.28
76730;BME280;65653;53.106;18.046;2023-03-14T03:15:56;98629.20;;;11.60;77.42
76730;BME280;65653;53.106;18.046;2023-03-14T03:18:23;98630.04;;;11.60;77.49
76730;BME280;65653;53.106;18.046;2023-03-14T03:20:49;98633.09;;;11.62;77.70
76730;BME280;65653;53.106;18.046;2023-03-14T03:23:16;98626.34;;;11.62;77.77
76730;BME280;65653;53.106;18.046;2023-03-14T03:25:48;98624.34;;;11.63;77.79
76730;BME280;65653;53.106;18.046;2023-03-14T03:28:14;98620.71;;;11.59;78.01
76730;BME280;65653;53.106;18.046;2023-03-14T03:30:41;98616.95;;;11.55;78.25
76730;BME280;65653;53.106;18.046;2023-03-14T03:33:08;98613.08;;;11.51;78.57
76730;BME280;65653;53.106;18.046;2023-03-14T03:35:44;98606.07;;;11.48;78.77
76730;BME280;65653;53.106;18.046;2023-03-14T03:38:12;98599.00;;;11.45;79.03
76730;BME280;65653;53.106;18.046;2023-03-14T03:40:39;98606.88;;;11.40;79.16
76730;BME280;65653;53.106;18.046;2023-03-14T03:43:06;98617.04;;;11.37;79.40
76730;BME280;65653;53.106;18.046;2023-03-14T03:45:32;98615.56;;;11.33;79.74
76730;BME280;65653;53.106;18.046;2023-03-14T03:47:59;98613.55;;;11.32;80.08
76730;BME280;65653;53.106;18.046;2023-03-14T03:50:25;98616.89;;;11.32;80.19
76730;BME280;65653;53.106;18.046;2023-03-14T03:52:51;98609.52;;;11.28;81.02
76730;BME280;65653;53.106;18.046;2023-03-14T03:55:19;98605.56;;;11.16;82.17
76730;BME280;65653;53.106;18.046;2023-03-14T03:57:45;98593.52;;;11.01;83.09
76730;BME280;65653;53.106;18.046;2023-03-14T04:00:12;98585.52;;;10.85;84.01
76730;BME280;65653;53.106;18.046;2023-03-14T04:02:39;98568.95;;;10.71;84.74
76730;BME280;65653;53.106;18.046;2023-03-14T04:05:05;98551.14;;;10.58;85.55
76730;BME280;65653;53.106;18.046;2023-03-14T04:07:32;98536.64;;;10.49;86.01
76730;BME280;65653;53.106;18.046;2023-03-14T04:09:59;98532.49;;;10.42;86.39
76730;BME280;65653;53.106;18.046;2023-03-14T04:12:25;98532.02;;;10.38;86.73
76730;BME280;65653;53.106;18.046;2023-03-14T04:14:52;98525.08;;;10.37;86.82
76730;BME280;65653;53.106;18.046;2023-03-14T04:17:18;98525.95;;;10.35;86.95
76730;BME280;65653;53.106;18.046;2023-03-14T04:19:44;98533.98;;;10.36;86.97
76730;BME280;65653;53.106;18.046;2023-03-14T04:22:11;98532.62;;;10.38;86.82
76730;BME280;65653;53.106;18.046;2023-03-14T04:24:38;98538.52;;;10.40;86.77
76730;BME280;65653;53.106;18.046;2023-03-14T04:27:04;98536.77;;;10.42;86.66
76730;BME280;65653;53.106;18.046;2023-03-14T04:29:30;98530.79;;;10.42;86.64
76730;BME280;65653;53.106;18.046;2023-03-14T04:31:57;98520.23;;;10.43;86.68
76730;BME280;65653;53.106;18.046;2023-03-14T04:34:23;98521.45;;;10.43;86.52
76730;BME280;65653;53.106;18.046;2023-03-14T04:36:50;98515.39;;;10.40;86.65
76730;BME280;65653;53.106;18.046;2023-03-14T04:39:16;98513.45;;;10.41;86.79
76730;BME280;65653;53.106;18.046;2023-03-14T04:41:44;98501.75;;;10.39;86.84
76730;BME280;65653;53.106;18.046;2023-03-14T04:44:10;98502.29;;;10.37;87.03
76730;BME280;65653;53.106;18.046;2023-03-14T04:46:37;98499.77;;;10.36;87.18
76730;BME280;65653;53.106;18.046;2023-03-14T04:49:03;98494.48;;;10.32;87.47
76730;BME280;65653;53.106;18.046;2023-03-14T04:51:30;98490.70;;;10.31;87.71
76730;BME280;65653;53.106;18.046;2023-03-14T04:53:56;98497.80;;;10.29;87.59
76730;BME280;65653;53.106;18.046;2023-03-14T04:56:23;98500.73;;;10.28;87.69
76730;BME280;65653;53.106;18.046;2023-03-14T04:58:49;98507.59;;;10.28;87.65
76730;BME280;65653;53.106;18.046;2023-03-14T05:01:16;98514.61;;;10.28;87.43
76730;BME280;65653;53.106;18.046;2023-03-14T05:03:44;98507.95;;;10.27;87.35
76730;BME280;65653;53.106;18.046;2023-03-14T05:06:10;98505.94;;;10.25;87.19
76730;BME280;65653;53.106;18.046;2023-03-14T05:08:37;98509.88;;;10.22;87.11
76730;BME280;65653;53.106;18.046;2023-03-14T05:11:03;98504.77;;;10.21;86.89
76730;BME280;65653;53.106;18.046;2023-03-14T05:13:30;98500.10;;;10.19;86.67
76730;BME280;65653;53.106;18.046;2023-03-14T05:16:08;98478.89;;;10.13;86.35
76730;BME280;65653;53.106;18.046;2023-03-14T05:18:35;98471.32;;;10.04;86.35
76730;BME280;65653;53.106;18.046;2023-03-14T05:21:03;98479.55;;;9.98;86.09
76730;BME280;65653;53.106;18.046;2023-03-14T05:23:30;98492.54;;;9.97;86.11
76730;BME280;65653;53.106;18.046;2023-03-14T05:25:56;98497.57;;;9.96;85.65
76730;BME280;65653;53.106;18.046;2023-03-14T05:28:23;98508.28;;;9.96;85.32
76730;BME280;65653;53.106;18.046;2023-03-14T05:30:54;98511.79;;;10.02;84.25
76730;BME280;65653;53.106;18.046;2023-03-14T05:33:20;98500.14;;;10.08;83.68
76730;BME280;65653;53.106;18.046;2023-03-14T05:35:47;98495.11;;;10.08;82.86
76730;BME280;65653;53.106;18.046;2023-03-14T05:38:13;98489.80;;;10.08;82.39
76730;BME280;65653;53.106;18.046;2023-03-14T05:40:40;98502.13;;;10.07;82.26
76730;BME280;65653;53.106;18.046;2023-03-14T05:43:06;98496.85;;;10.09;81.84
76730;BME280;65653;53.106;18.046;2023-03-14T05:45:34;98495.02;;;10.12;81.02
76730;BME280;65653;53.106;18.046;2023-03-14T05:48:02;98493.79;;;10.11;80.87
76730;BME280;65653;53.106;18.046;2023-03-14T05:50:28;98498.98;;;10.11;80.72
76730;BME280;65653;53.106;18.046;2023-03-14T05:52:55;98490.44;;;10.10;79.99
76730;BME280;65653;53.106;18.046;2023-03-14T05:55:21;98496.54;;;10.13;79.48
76730;BME280;65653;53.106;18.046;2023-03-14T05:57:48;98502.30;;;10.15;79.08
76730;BME280;65653;53.106;18.046;2023-03-14T06:00:15;98496.75;;;10.21;78.58
76730;BME280;65653;53.106;18.046;2023-03-14T06:02:41;98495.15;;;10.29;77.29
76730;BME280;65653;53.106;18.046;2023-03-14T06:05:08;98490.28;;;10.34;77.04
76730;BME280;65653;53.106;18.046;2023-03-14T06:07:35;98490.80;;;10.35;76.94
76730;BME280;65653;53.106;18.046;2023-03-14T06:10:02;98491.05;;;10.37;76.64
76730;BME280;65653;53.106;18.046;2023-03-14T06:12:28;98492.53;;;10.41;75.98
76730;BME280;65653;53.106;18.046;2023-03-14T06:14:55;98495.66;;;10.48;75.55
76730;BME280;65653;53.106;18.046;2023-03-14T06:17:21;98504.23;;;10.52;74.97
76730;BME280;65653;53.106;18.046;2023-03-14T06:19:48;98511.48;;;10.57;74.05
76730;BME280;65653;53.106;18.046;2023-03-14T06:22:14;98515.70;;;10.61;74.12
76730;BME280;65653;53.106;18.046;2023-03-14T06:24:41;98522.41;;;10.66;74.27
76730;BME280;65653;53.106;18.046;2023-03-14T06:27:07;98519.95;;;10.70;73.77
76730;BME280;65653;53.106;18.046;2023-03-14T06:29:34;98521.66;;;10.74;73.32
76730;BME280;65653;53.106;18.046;2023-03-14T06:32:00;98517.58;;;10.80;73.27
76730;BME280;65653;53.106;18.046;2023-03-14T06:34:27;98519.52;;;10.81;72.85
76730;BME280;65653;53.106;18.046;2023-03-14T06:36:54;98517.68;;;10.85;72.87
76730;BME280;65653;53.106;18.046;2023-03-14T06:39:20;98515.02;;;10.89;72.67
76730;BME280;65653;53.106;18.046;2023-03-14T06:41:47;98517.02;;;10.91;72.48
76730;BME280;65653;53.106;18.046;2023-03-14T06:44:13;98511.09;;;10.90;72.52
76730;BME280;65653;53.106;18.046;2023-03-14T06:46:40;98506.73;;;10.90;72.76
76730;BME280;65653;53.106;18.046;2023-03-14T06:49:06;98496.31;;;10.91;72.58
76730;BME280;65653;53.106;18.046;2023-03-14T06:51:33;98501.27;;;10.88;72.40
76730;BME280;65653;53.106;18.046;2023-03-14T06:54:00;98506.85;;;10.87;72.47
76730;BME280;65653;53.106;18.046;2023-03-14T06:56:26;98505.60;;;10.88;72.69
76730;BME280;65653;53.106;18.046;2023-03-14T06:58:53;98497.83;;;10.88;72.52
76730;BME280;65653;53.106;18.046;2023-03-14T07:01:29;98498.02;;;10.88;72.55
76730;BME280;65653;53.106;18.046;2023-03-14T07:03:56;98505.87;;;10.94;72.45
76730;BME280;65653;53.106;18.046;2023-03-14T07:06:24;98514.95;;;11.03;72.02
76730;BME280;65653;53.106;18.046;2023-03-14T07:08:51;98519.20;;;11.13;71.50
76730;BME280;65653;53.106;18.046;2023-03-14T07:11:17;98526.56;;;11.18;71.32
76730;BME280;65653;53.106;18.046;2023-03-14T07:13:44;98520.94;;;11.32;71.12
76730;BME280;65653;53.106;18.046;2023-03-14T07:16:10;98506.67;;;11.49;70.37
76730;BME280;65653;53.106;18.046;2023-03-14T07:18:37;98511.85;;;11.59;69.98
76730;BME280;65653;53.106;18.046;2023-03-14T07:21:05;98513.10;;;11.68;69.73
76730;BME280;65653;53.106;18.046;2023-03-14T07:23:32;98507.75;;;11.77;69.59
76730;BME280;65653;53.106;18.046;2023-03-14T07:25:59;98507.88;;;11.88;69.78
76730;BME280;65653;53.106;18.046;2023-03-14T07:28:25;98508.16;;;11.97;69.18
76730;BME280;65653;53.106;18.046;2023-03-14T07:30:54;98507.41;;;12.09;68.63
76730;BME280;65653;53.106;18.046;2023-03-14T07:33:20;98512.85;;;12.20;68.69
76730;BME280;65653;53.106;18.046;2023-03-14T07:35:47;98511.72;;;12.25;68.59
76730;BME280;65653;53.106;18.046;2023-03-14T07:38:15;98522.71;;;12.26;68.60
76730;BME280;65653;53.106;18.046;2023-03-14T07:40:42;98518.23;;;12.18;68.43
76730;BME280;65653;53.106;18.046;2023-03-14T07:43:09;98518.59;;;12.15;68.40
76730;BME280;65653;53.106;18.046;2023-03-14T07:45:36;98521.49;;;12.17;68.22
76730;BME280;65653;53.106;18.046;2023-03-14T07:48:03;98514.08;;;12.20;68.43
76730;BME280;65653;53.106;18.046;2023-03-14T07:50:29;98513.35;;;12.19;68.51
76730;BME280;65653;53.106;18.046;2023-03-14T07:52:56;98517.72;;;12.16;68.56
76730;BME280;65653;53.106;18.046;2023-03-14T07:55:22;98503.01;;;12.16;69.14
76730;BME280;65653;53.106;18.046;2023-03-14T07:57:49;98508.30;;;12.19;68.87
76730;BME280;65653;53.106;18.046;2023-03-14T08:00:15;98512.00;;;12.16;68.96
76730;BME280;65653;53.106;18.046;2023-03-14T08:02:42;98507.16;;;12.24;68.98
76730;BME280;65653;53.106;18.046;2023-03-14T08:05:09;98507.79;;;12.28;68.79
76730;BME280;65653;53.106;18.046;2023-03-14T08:07:36;98500.05;;;12.32;68.62
76730;BME280;65653;53.106;18.046;2023-03-14T08:10:03;98489.21;;;12.33;68.69
76730;BME280;65653;53.106;18.046;2023-03-14T08:12:30;98492.95;;;12.37;68.66
76730;BME280;65653;53.106;18.046;2023-03-14T08:14:56;98491.55;;;12.31;68.56
76730;BME280;65653;53.106;18.046;2023-03-14T08:17:23;98482.73;;;12.26;68.94
76730;BME280;65653;53.106;18.046;2023-03-14T08:19:49;98473.65;;;12.30;69.11
76730;BME280;65653;53.106;18.046;2023-03-14T08:22:16;98475.40;;;12.35;69.12
76730;BME280;65653;53.106;18.046;2023-03-14T08:24:42;98483.42;;;12.44;68.83
76730;BME280;65653;53.106;18.046;2023-03-14T08:27:09;98476.67;;;12.47;68.49
76730;BME280;65653;53.106;18.046;2023-03-14T08:29:35;98470.30;;;12.50;68.36
76730;BME280;65653;53.106;18.046;2023-03-14T08:32:02;98468.95;;;12.58;68.48
76730;BME280;65653;53.106;18.046;2023-03-14T08:34:28;98471.72;;;12.61;68.02
76730;BME280;65653;53.106;18.046;2023-03-14T08:36:54;98470.52;;;12.59;68.05
76730;BME280;65653;53.106;18.046;2023-03-14T08:39:23;98479.23;;;12.62;67.79
76730;BME280;65653;53.106;18.046;2023-03-14T08:41:49;98485.55;;;12.61;67.85
76730;BME280;65653;53.106;18.046;2023-03-14T08:44:16;98483.34;;;12.59;67.96
76730;BME280;65653;53.106;18.046;2023-03-14T08:46:42;98490.56;;;12.62;68.10
76730;BME280;65653;53.106;18.046;2023-03-14T08:49:09;98488.78;;;12.65;67.92
76730;BME280;65653;53.106;18.046;2023-03-14T08:51:35;98493.24;;;12.67;67.89
76730;BME280;65653;53.106;18.046;2023-03-14T08:54:02;98486.12;;;12.64;67.89
76730;BME280;65653;53.106;18.046;2023-03-14T08:56:28;98490.69;;;12.65;68.03
76730;BME280;65653;53.106;18.046;2023-03-14T08:58:54;98503.98;;;12.56;68.39
76730;BME280;65653;53.106;18.046;2023-03-14T09:01:21;98521.27;;;12.40;68.92
76730;BME280;65653;53.106;18.046;2023-03-14T09:03:50;98523.15;;;12.36;69.40
76730;BME280;65653;53.106;18.046;2023-03-14T09:06:17;98527.62;;;12.31;69.41
76730;BME280;65653;53.106;18.046;2023-03-14T09:08:44;98527.83;;;12.30;69.57
76730;BME280;65653;53.106;18.046;2023-03-14T09:11:12;98521.22;;;12.35;69.40
76730;BME280;65653;53.106;18.046;2023-03-14T09:13:38;98515.41;;;12.54;68.85
76730;BME280;65653;53.106;18.046;2023-03-14T09:16:05;98517.02;;;12.69;68.22
76730;BME280;65653;53.106;18.046;2023-03-14T09:18:32;98515.16;;;12.96;67.58
76730;BME280;65653;53.106;18.046;2023-03-14T09:20:58;98501.96;;;13.15;67.20
76730;BME280;65653;53.106;18.046;2023-03-14T09:23:25;98495.14;;;13.52;66.21
76730;BME280;65653;53.106;18.046;2023-03-14T09:25:57;98493.77;;;14.00;64.98
76730;BME280;65653;53.106;18.046;2023-03-14T09:28:24;98488.00;;;14.41;63.39
76730;BME280;65653;53.106;18.046;2023-03-14T09:30:51;98480.52;;;14.47;62.42
76730;BME280;65653;53.106;18.046;2023-03-14T09:33:18;98476.48;;;14.66;61.82
76730;BME280;65653;53.106;18.046;2023-03-14T09:35:45;98479.17;;;15.03;61.13
76730;BME280;65653;53.106;18.046;2023-03-14T09:38:11;98482.52;;;14.94;60.79
76730;BME280;65653;53.106;18.046;2023-03-14T09:40:38;98491.96;;;14.69;61.15
76730;BME280;65653;53.106;18.046;2023-03-14T09:43:05;98493.35;;;14.81;61.32
76730;BME280;65653;53.106;18.046;2023-03-14T09:45:36;98495.77;;;14.79;61.07
76730;BME280;65653;53.106;18.046;2023-03-14T09:48:14;98495.60;;;14.90;60.94
76730;BME280;65653;53.106;18.046;2023-03-14T09:51:02;98493.79;;;14.96;60.07
76730;BME280;65653;53.106;18.046;2023-03-14T09:53:45;98494.27;;;14.65;61.09
76730;BME280;65653;53.106;18.046;2023-03-14T09:56:20;98502.32;;;14.43;61.74
76730;BME280;65653;53.106;18.046;2023-03-14T09:58:55;98496.38;;;14.29;62.28
76730;BME280;65653;53.106;18.046;2023-03-14T10:01:29;98498.81;;;14.14;63.00
76730;BME280;65653;53.106;18.046;2023-03-14T10:04:00;98490.91;;;14.07;62.75
76730;BME280;65653;53.106;18.046;2023-03-14T10:06:30;98484.65;;;13.95;62.81
76730;BME280;65653;53.106;18.046;2023-03-14T10:08:57;98496.48;;;13.77;63.42
76730;BME280;65653;53.106;18.046;2023-03-14T10:11:24;98497.27;;;13.71;63.71
76730;BME280;65653;53.106;18.046;2023-03-14T10:16:32;98495.25;;;13.38;64.52
76730;BME280;65653;53.106;18.046;2023-03-14T10:19:04;98495.42;;;13.28;64.66
76730;BME280;65653;53.106;18.046;2023-03-14T10:21:37;98502.95;;;13.18;64.51
76730;BME280;65653;53.106;18.046;2023-03-14T10:24:22;98499.90;;;13.23;64.67
76730;BME280;65653;53.106;18.046;2023-03-14T10:26:54;98501.77;;;13.36;64.39
76730;BME280;65653;53.106;18.046;2023-03-14T10:29:21;98504.86;;;13.31;64.62
76730;BME280;65653;53.106;18.046;2023-03-14T10:34:30;98500.41;;;13.18;65.06
76730;BME280;65653;53.106;18.046;2023-03-14T10:37:03;98495.02;;;13.28;64.89
76730;BME280;65653;53.106;18.046;2023-03-14T10:39:34;98493.14;;;13.34;64.56
76730;BME280;65653;53.106;18.046;2023-03-14T10:42:12;98490.70;;;13.42;63.98
76730;BME280;65653;53.106;18.046;2023-03-14T10:44:41;98483.19;;;13.63;63.63
76730;BME280;65653;53.106;18.046;2023-03-14T10:47:16;98478.55;;;13.78;62.56
76730;BME280;65653;53.106;18.046;2023-03-14T10:49:43;98474.89;;;13.81;62.35
76730;BME280;65653;53.106;18.046;2023-03-14T10:52:22;98483.98;;;13.94;62.11
76730;BME280;65653;53.106;18.046;2023-03-14T10:54:58;98481.88;;;14.15;61.65
76730;BME280;65653;53.106;18.046;2023-03-14T10:57:26;98484.31;;;14.18;61.06
76730;BME280;65653;53.106;18.046;2023-03-14T10:59:55;98491.98;;;14.07;61.42
76730;BME280;65653;53.106;18.046;2023-03-14T11:02:42;98496.19;;;13.90;61.59
76730;BME280;65653;53.106;18.046;2023-03-14T11:05:28;98498.77;;;13.76;61.88
76730;BME280;65653;53.106;18.046;2023-03-14T11:08:04;98502.70;;;13.75;62.25
76730;BME280;65653;53.106;18.046;2023-03-14T11:10:37;98505.27;;;13.81;62.07
76730;BME280;65653;53.106;18.046;2023-03-14T11:13:32;98497.92;;;13.78;61.87
76730;BME280;65653;53.106;18.046;2023-03-14T11:19:03;98498.14;;;13.73;62.05
76730;BME280;65653;53.106;18.046;2023-03-14T11:21:51;98493.41;;;13.76;62.25
76730;BME280;65653;53.106;18.046;2023-03-14T11:26:59;98495.87;;;13.72;62.13
76730;BME280;65653;53.106;18.046;2023-03-14T11:29:40;98496.75;;;13.75;62.38
76730;BME280;65653;53.106;18.046;2023-03-14T11:32:17;98494.06;;;13.90;62.17
76730;BME280;65653;53.106;18.046;2023-03-14T11:34:51;98504.27;;;14.09;61.83
76730;BME280;65653;53.106;18.046;2023-03-14T11:37:26;98501.02;;;14.23;61.30
76730;BME280;65653;53.106;18.046;2023-03-14T11:42:37;98507.05;;;14.43;60.51
76730;BME280;65653;53.106;18.046;2023-03-14T11:45:24;98507.66;;;14.44;60.29
76730;BME280;65653;53.106;18.046;2023-03-14T11:50:36;98499.40;;;14.52;60.38
76730;BME280;65653;53.106;18.046;2023-03-14T11:53:14;98500.11;;;14.78;59.94
76730;BME280;65653;53.106;18.046;2023-03-14T11:55:42;98496.31;;;14.68;59.44
76730;BME280;65653;53.106;18.046;2023-03-14T11:58:33;98505.64;;;14.50;59.66
76730;BME280;65653;53.106;18.046;2023-03-14T12:01:09;98504.63;;;14.39;60.28
76730;BME280;65653;53.106;18.046;2023-03-14T12:03:50;98495.20;;;14.43;60.20
76730;BME280;65653;53.106;18.046;2023-03-14T12:06:51;98500.27;;;14.41;60.45
76730;BME280;65653;53.106;18.046;2023-03-14T12:09:18;98493.44;;;14.32;60.57
76730;BME280;65653;53.106;18.046;2023-03-14T12:11:52;98493.27;;;14.25;61.16
76730;BME280;65653;53.106;18.046;2023-03-14T12:14:37;98486.38;;;14.19;61.30
76730;BME280;65653;53.106;18.046;2023-03-14T12:17:20;98481.86;;;14.22;61.53
76730;BME280;65653;53.106;18.046;2023-03-14T12:19:53;98478.21;;;14.12;61.39
76730;BME280;65653;53.106;18.046;2023-03-14T12:22:28;98473.89;;;14.06;62.03
76730;BME280;65653;53.106;18.046;2023-03-14T12:27:44;98468.59;;;14.09;62.01
76730;BME280;65653;53.106;18.046;2023-03-14T12:30:24;98473.02;;;14.12;61.45
76730;BME280;65653;53.106;18.046;2023-03-14T12:35:49;98462.36;;;14.92;59.11
76730;BME280;65653;53.106;18.046;2023-03-14T12:38:43;98461.88;;;15.14;58.39
76730;BME280;65653;53.106;18.046;2023-03-14T12:43:46;98462.30;;;14.73;59.50
76730;BME280;65653;53.106;18.046;2023-03-14T12:46:24;98449.14;;;14.64;59.39
76730;BME280;65653;53.106;18.046;2023-03-14T12:51:39;98451.59;;;15.18;58.82
76730;BME280;65653;53.106;18.046;2023-03-14T12:54:21;98446.77;;;15.35;58.24
76730;BME280;65653;53.106;18.046;2023-03-14T12:57:15;98447.13;;;15.04;58.74
76730;BME280;65653;53.106;18.046;2023-03-14T12:59:51;98451.79;;;14.70;59.71
76730;BME280;65653;53.106;18.046;2023-03-14T13:05:05;98451.25;;;14.39;60.94
76730;BME280;65653;53.106;18.046;2023-03-14T13:08:31;98457.59;;;14.22;61.63
76730;BME280;65653;53.106;18.046;2023-03-14T13:10:28;98457.92;;;14.20;61.84
76730;BME280;65653;53.106;18.046;2023-03-14T13:13:23;98452.46;;;14.19;61.95
76730;BME280;65653;53.106;18.046;2023-03-14T13:15:56;98445.39;;;14.23;61.88
76730;BME280;65653;53.106;18.046;2023-03-14T13:18:35;98439.79;;;14.18;62.17
76730;BME280;65653;53.106;18.046;2023-03-14T13:21:16;98440.30;;;14.08;62.49
76730;BME280;65653;53.106;18.046;2023-03-14T13:24:17;98445.13;;;13.98;62.80
76730;BME280;65653;53.106;18.046;2023-03-14T13:26:44;98447.71;;;13.89;62.99
76730;BME280;65653;53.106;18.046;2023-03-14T13:29:22;98446.77;;;13.81;63.21
76730;BME280;65653;53.106;18.046;2023-03-14T13:31:51;98444.58;;;13.66;63.87
76730;BME280;65653;53.106;18.046;2023-03-14T13:34:19;98448.92;;;13.48;64.45
76730;BME280;65653;53.106;18.046;2023-03-14T13:36:46;98445.82;;;13.37;65.14
76730;BME280;65653;53.106;18.046;2023-03-14T13:39:20;98445.16;;;13.36;64.83
76730;BME280;65653;53.106;18.046;2023-03-14T13:41:58;98451.26;;;13.44;64.55